Time;durP1;ratioP1;P1;durP2;ratioP2;P2;SDS_P1;SDS_P2;PMS_P1;PMS_P2;Temp;Humidity;BMP_temperature;BMP_pressure;BME280_temperature;BME280_humidity;BME280_pressure;Samples;Min_cycle;Max_cycle;Signal;HPM_P1;HPM_P2
2023/10/20 00:02:38;;;;;;;5.30;4.80;;;;;;;;;;6186887;28;20505;-77
2023/10/20 00:05:39;;;;;;;6.27;5.20;;;;;;;;;;6170219;28;20100;-77
2023/10/20 00:08:39;;;;;;;4.90;4.40;;;;;;;;;;6174987;28;20562;-77
2023/10/20 00:11:39;;;;;;;5.17;4.67;;;;;;;;;;6161090;28;20031;-77
2023/10/20 00:14:40;;;;;;;5.82;4.88;;;;;;;;;;6180548;28;20031;-78
2023/10/20 00:17:40;;;;;;;6.97;5.60;;;;;;;;;;6175959;28;20039;-78
2023/10/20 00:20:41;;;;;;;5.00;4.45;;;;;;;;;;6173754;28;20113;-77
2023/10/20 00:23:41;;;;;;;5.03;4.37;;;;;;;;;;6195786;28;20031;-77
2023/10/20 00:26:41;;;;;;;6.03;5.43;;;;;;;;;;6171425;28;20030;-77
2023/10/20 00:29:41;;;;;;;5.80;5.10;;;;;;;;;;6198231;28;20038;-77
2023/10/20 00:32:42;;;;;;;6.27;4.97;;;;;;;;;;6172285;28;20386;-77
2023/10/20 00:35:42;;;;;;;5.63;5.13;;;;;;;;;;6170896;28;20438;-77
2023/10/20 00:38:42;;;;;;;5.33;4.83;;;;;;;;;;6173441;28;20108;-77
2023/10/20 00:41:43;;;;;;;5.78;4.90;;;;;;;;;;6155860;28;20129;-78
2023/10/20 00:44:43;;;;;;;5.57;4.90;;;;;;;;;;6195561;28;20041;-76
2023/10/20 00:47:47;;;;;;;5.37;4.87;;;;;;;;;;6182996;28;20088;-78
2023/10/20 00:50:47;;;;;;;5.60;5.05;;;;;;;;;;6167209;28;20039;-77
2023/10/20 00:53:47;;;;;;;6.63;5.20;;;;;;;;;;6175544;28;20544;-77
2023/10/20 00:56:48;;;;;;;6.30;5.27;;;;;;;;;;6184853;28;20118;-77
2023/10/20 00:59:48;;;;;;;6.77;5.30;;;;;;;;;;6193852;28;20109;-75
2023/10/20 01:02:48;;;;;;;5.50;4.97;;;;;;;;;;6197902;28;20110;-77
2023/10/20 01:05:48;;;;;;;5.93;5.30;;;;;;;;;;6218683;28;20362;-77
2023/10/20 01:08:53;;;;;;;5.40;4.87;;;;;;;;;;6182768;28;20114;-78
2023/10/20 01:11:53;;;;;;;6.43;5.00;;;;;;;;;;6184679;28;20108;-77
2023/10/20 01:14:54;;;;;;;6.40;5.23;;;;;;;;;;6180884;28;20383;-77
2023/10/20 01:17:54;;;;;;;6.50;5.23;;;;;;;;;;6185554;28;20031;-77
2023/10/20 01:20:54;;;;;;;7.23;5.73;;;;;;;;;;6186665;28;20057;-77
2023/10/20 01:23:55;;;;;;;10.10;5.77;;;;;;;;;;6185803;28;20034;-77
2023/10/20 01:26:55;;;;;;;9.60;5.73;;;;;;;;;;6196340;28;20034;-77
2023/10/20 01:29:55;;;;;;;7.60;5.17;;;;;;;;;;6192260;28;20030;-76
2023/10/20 01:32:55;;;;;;;7.80;5.50;;;;;;;;;;6183919;28;20105;-77
2023/10/20 01:35:56;;;;;;;9.40;5.37;;;;;;;;;;6199515;28;20060;-76
2023/10/20 01:38:56;;;;;;;9.40;5.53;;;;;;;;;;6189168;28;20400;-76
2023/10/20 01:41:56;;;;;;;6.97;5.20;;;;;;;;;;6174968;28;20369;-77
2023/10/20 01:44:56;;;;;;;10.50;5.37;;;;;;;;;;6171367;28;20027;-76
2023/10/20 01:47:56;;;;;;;10.57;5.20;;;;;;;;;;6166283;28;20491;-77
2023/10/20 01:50:59;;;;;;;10.50;5.93;;;;;;;;;;6190335;28;20034;-76
2023/10/20 01:54:00;;;;;;;10.63;5.18;;;;;;;;;;6177772;28;20126;-77
2023/10/20 01:57:00;;;;;;;12.47;5.67;;;;;;;;;;6203967;28;20034;-77
2023/10/20 02:00:01;;;;;;;9.47;5.63;;;;;;;;;;6194798;28;20046;-76
2023/10/20 02:03:02;;;;;;;11.70;5.80;;;;;;;;;;6186997;28;20030;-80
2023/10/20 02:06:03;;;;;;;11.30;5.67;;;;;;;;;;6197232;28;20075;-77
2023/10/20 02:09:05;;;;;;;12.93;5.85;;;;;;;;;;6181371;28;20041;-76
2023/10/20 02:12:06;;;;;;;12.32;6.35;;;;;;;;;;6181334;28;20108;-77
2023/10/20 02:15:07;;;;;;;11.27;5.53;;;;;;;;;;6192850;28;20034;-76
2023/10/20 02:18:08;;;;;;;9.98;5.70;;;;;;;;;;6207909;28;20448;-77
2023/10/20 02:21:09;;;;;;;12.40;6.00;;;;;;;;;;6203291;28;20034;-76
2023/10/20 02:24:09;;;;;;;;;;;;;;;;;;6178477;28;20049;-77
2023/10/20 02:27:09;;;;;;;8.47;4.63;;;;;;;;;;6175538;28;19913;-77
2023/10/20 02:30:12;;;;;;;9.80;5.30;;;;;;;;;;6191009;28;20394;-77
2023/10/20 02:33:12;;;;;;;10.82;5.90;;;;;;;;;;6197163;28;20026;-79
2023/10/20 02:36:15;;;;;;;10.90;6.03;;;;;;;;;;6181157;28;20522;-77
2023/10/20 02:39:15;;;;;;;10.98;5.85;;;;;;;;;;6196478;28;20058;-77
2023/10/20 02:42:15;;;;;;;11.87;6.27;;;;;;;;;;6206151;28;20030;-76
2023/10/20 02:45:16;;;;;;;11.50;5.90;;;;;;;;;;6211490;28;20026;-76
2023/10/20 02:48:16;;;;;;;9.60;5.60;;;;;;;;;;6181698;28;20031;-77
2023/10/20 02:51:17;;;;;;;11.33;6.10;;;;;;;;;;6185352;28;20018;-77
2023/10/20 02:54:17;;;;;;;;;;;;;;;;;;6204534;28;20026;-79
2023/10/20 02:57:18;;;;;;;9.30;5.10;;;;;;;;;;6186643;28;19941;-78
2023/10/20 03:00:19;;;;;;;10.30;5.53;;;;;;;;;;6182569;28;20032;-77
2023/10/20 03:03:21;;;;;;;11.10;6.10;;;;;;;;;;6192501;28;20038;-77
2023/10/20 03:06:22;;;;;;;11.93;5.97;;;;;;;;;;6177095;28;20039;-77
2023/10/20 03:09:22;;;;;;;12.48;6.15;;;;;;;;;;6184052;28;20038;-77
2023/10/20 03:12:24;;;;;;;10.27;5.47;;;;;;;;;;6201761;28;20071;-76
2023/10/20 03:15:24;;;;;;;13.30;6.30;;;;;;;;;;6177857;28;20122;-77
2023/10/20 03:18:24;;;;;;;10.73;6.03;;;;;;;;;;6205188;28;20038;-77
2023/10/20 03:21:24;;;;;;;10.17;5.97;;;;;;;;;;6222088;28;20022;-77
2023/10/20 03:24:25;;;;;;;10.60;6.13;;;;;;;;;;6235241;28;20027;-76
2023/10/20 03:27:25;;;;;;;10.63;6.27;;;;;;;;;;6197850;28;20072;-76
2023/10/20 03:30:25;;;;;;;10.27;6.50;;;;;;;;;;6202336;28;20026;-76
2023/10/20 03:33:25;;;;;;;9.90;5.63;;;;;;;;;;6197099;28;20052;-76
2023/10/20 03:36:27;;;;;;;13.70;5.87;;;;;;;;;;6220713;28;20022;-76
2023/10/20 03:39:27;;;;;;;10.07;6.03;;;;;;;;;;6185433;28;20145;-76
2023/10/20 03:42:27;;;;;;;10.13;5.60;;;;;;;;;;6184836;28;20031;-76
2023/10/20 03:45:28;;;;;;;11.47;5.80;;;;;;;;;;6185891;28;20121;-76
2023/10/20 03:48:29;;;;;;;9.47;5.57;;;;;;;;;;6196276;28;20057;-76
2023/10/20 03:51:29;;;;;;;;;;;;;;;;;;6208725;28;20056;-76
2023/10/20 03:54:30;;;;;;;8.55;4.47;;;;;;;;;;6196082;28;19909;-76
2023/10/20 03:57:30;;;;;;;8.13;5.45;;;;;;;;;;6197670;28;20479;-76
2023/10/20 04:00:31;;;;;;;8.23;5.47;;;;;;;;;;6196613;28;20474;-76
2023/10/20 04:03:32;;;;;;;8.13;5.50;;;;;;;;;;6204006;28;20022;-77
2023/10/20 04:06:33;;;;;;;9.07;5.07;;;;;;;;;;6218991;28;20038;-76
2023/10/20 04:09:33;;;;;;;9.95;5.57;;;;;;;;;;6191268;28;20019;-76
2023/10/20 04:12:33;;;;;;;8.47;5.70;;;;;;;;;;6198495;28;20144;-76
2023/10/20 04:15:36;;;;;;;7.83;5.23;;;;;;;;;;6187949;28;20086;-74
2023/10/20 04:18:37;;;;;;;7.70;5.40;;;;;;;;;;6195370;28;20031;-74
2023/10/20 04:21:39;;;;;;;8.57;5.43;;;;;;;;;;6184029;28;20430;-74
2023/10/20 04:24:41;;;;;;;9.10;5.57;;;;;;;;;;6193535;28;20022;-74
2023/10/20 04:27:49;;;;;;;11.75;5.55;;;;;;;;;;6158334;28;20369;-75
2023/10/20 05:03:31;;;;;;;7.07;4.53;;;;;;;;;;6191167;28;20050;-74
2023/10/20 05:06:42;;;;;;;5.00;4.22;;;;;;;;;;6186380;28;20102;-74
2023/10/20 05:09:54;;;;;;;5.72;4.47;;;;;;;;;;6182713;28;20030;-74
2023/10/20 05:12:54;;;;;;;5.53;4.15;;;;;;;;;;6191742;28;20115;-74
2023/10/20 05:15:54;;;;;;;6.70;4.90;;;;;;;;;;6177867;28;20364;-74
2023/10/20 05:18:55;;;;;;;6.77;4.67;;;;;;;;;;6169100;28;20080;-74
2023/10/20 05:21:56;;;;;;;5.68;4.50;;;;;;;;;;6184517;28;20034;-74
2023/10/20 05:24:56;;;;;;;5.97;4.90;;;;;;;;;;6201261;28;20034;-74
2023/10/20 05:27:56;;;;;;;6.93;4.77;;;;;;;;;;6193539;28;20027;-74
2023/10/20 05:30:57;;;;;;;6.20;4.47;;;;;;;;;;6201634;28;20030;-74
2023/10/20 05:33:57;;;;;;;5.85;4.20;;;;;;;;;;6191756;28;20022;-74
2023/10/20 05:36:58;;;;;;;6.23;4.40;;;;;;;;;;6188545;28;20092;-74
2023/10/20 05:39:58;;;;;;;7.00;5.17;;;;;;;;;;6176884;28;20072;-74
2023/10/20 05:42:58;;;;;;;6.80;4.73;;;;;;;;;;6218298;28;20044;-74
2023/10/20 05:45:58;;;;;;;6.20;4.63;;;;;;;;;;6198532;28;20149;-74
2023/10/20 05:48:58;;;;;;;5.63;4.40;;;;;;;;;;6189830;28;20049;-74
2023/10/20 05:51:59;;;;;;;5.00;3.67;;;;;;;;;;6182010;28;20479;-74
2023/10/20 05:54:59;;;;;;;6.43;4.43;;;;;;;;;;6192989;28;20072;-74
2023/10/20 05:58:00;;;;;;;5.93;4.30;;;;;;;;;;6179217;28;20065;-74
2023/10/20 06:01:07;;;;;;;6.03;4.35;;;;;;;;;;6210956;28;20088;-74
2023/10/20 06:04:08;;;;;;;4.75;4.15;;;;;;;;;;6181737;28;20476;-74
2023/10/20 06:07:08;;;;;;;8.27;4.75;;;;;;;;;;6192758;28;20073;-74
2023/10/20 06:10:08;;;;;;;5.20;4.17;;;;;;;;;;6201507;28;20062;-74
2023/10/20 06:13:08;;;;;;;5.47;4.27;;;;;;;;;;6178788;28;20025;-75
2023/10/20 06:16:09;;;;;;;5.27;4.10;;;;;;;;;;6184758;28;20050;-74
2023/10/20 06:19:10;;;;;;;5.43;4.25;;;;;;;;;;6171948;28;20035;-74
2023/10/20 06:22:10;;;;;;;7.03;4.63;;;;;;;;;;6192807;28;20049;-74
2023/10/20 06:25:12;;;;;;;6.93;4.13;;;;;;;;;;6207463;28;20449;-74
2023/10/20 06:28:12;;;;;;;6.65;4.55;;;;;;;;;;6228072;28;20010;-77
2023/10/20 06:31:41;;;;;;;5.27;4.27;;;;;;;;;;6220482;28;20035;-74
2023/10/20 06:34:42;;;;;;;5.75;4.40;;;;;;;;;;6181312;28;20512;-73
2023/10/20 06:40:42;;;;;;;5.97;4.47;;;;;;;;;;6188700;28;20058;-76
2023/10/20 06:43:46;;;;;;;4.97;4.10;;;;;;;;;;6216581;28;20034;-77
2023/10/20 06:46:47;;;;;;;5.53;4.38;;;;;;;;;;6171595;28;20081;-77
2023/10/20 06:49:47;;;;;;;5.93;4.40;;;;;;;;;;6173983;28;20037;-77
2023/10/20 06:52:47;;;;;;;6.40;4.67;;;;;;;;;;6196768;28;20030;-77
2023/10/20 06:55:48;;;;;;;5.90;4.57;;;;;;;;;;6193906;28;20300;-77
2023/10/20 06:58:48;;;;;;;6.03;4.85;;;;;;;;;;6189412;28;20030;-77
2023/10/20 07:01:50;;;;;;;6.03;4.73;;;;;;;;;;6184621;28;20034;-77
2023/10/20 07:04:51;;;;;;;5.68;4.68;;;;;;;;;;6195114;28;20428;-76
2023/10/20 07:07:51;;;;;;;8.13;5.17;;;;;;;;;;6192363;28;20060;-76
2023/10/20 07:10:52;;;;;;;5.60;4.87;;;;;;;;;;6188219;28;20275;-77
2023/10/20 07:13:52;;;;;;;6.47;4.67;;;;;;;;;;6192819;28;20022;-78
2023/10/20 07:16:52;;;;;;;6.20;4.63;;;;;;;;;;6190988;28;20023;-76
2023/10/20 07:19:53;;;;;;;6.77;5.20;;;;;;;;;;6184759;28;20030;-76
2023/10/20 07:22:53;;;;;;;7.30;4.78;;;;;;;;;;6202374;28;20117;-76
2023/10/20 07:25:53;;;;;;;8.00;5.27;;;;;;;;;;6175813;28;20031;-76
2023/10/20 07:28:54;;;;;;;7.33;5.33;;;;;;;;;;6187959;28;20151;-76
2023/10/20 07:31:54;;;;;;;6.47;5.20;;;;;;;;;;6194439;28;20030;-76
2023/10/20 07:34:55;;;;;;;7.47;5.22;;;;;;;;;;6184499;28;20018;-77
2023/10/20 07:37:55;;;;;;;7.80;5.83;;;;;;;;;;6176494;28;20023;-76
2023/10/20 07:40:55;;;;;;;8.00;5.40;;;;;;;;;;6208949;28;20027;-76
2023/10/20 07:43:56;;;;;;;7.07;5.30;;;;;;;;;;6186972;28;20027;-76
2023/10/20 07:46:57;;;;;;;8.85;5.78;;;;;;;;;;6196394;28;20034;-74
2023/10/20 07:49:57;;;;;;;7.22;5.63;;;;;;;;;;6186081;28;20049;-76
2023/10/20 07:52:57;;;;;;;6.75;4.72;;;;;;;;;;6185833;28;20161;-74
2023/10/20 07:55:58;;;;;;;7.53;5.40;;;;;;;;;;6203170;28;20387;-75
2023/10/20 07:58:58;;;;;;;7.10;5.50;;;;;;;;;;6178332;28;20464;-75
2023/10/20 08:01:59;;;;;;;9.25;5.97;;;;;;;;;;6183251;28;20045;-74
2023/10/20 08:05:00;;;;;;;8.37;5.97;;;;;;;;;;6187541;28;20060;-74
2023/10/20 08:08:01;;;;;;;9.27;5.50;;;;;;;;;;6192745;28;20031;-74
2023/10/20 08:11:06;;;;;;;7.50;5.90;;;;;;;;;;6186812;28;20117;-74
2023/10/20 08:14:06;;;;;;;8.98;5.82;;;;;;;;;;6197857;28;20130;-74
2023/10/20 08:17:07;;;;;;;8.10;6.40;;;;;;;;;;6187990;28;20035;-76
2023/10/20 08:20:09;;;;;;;8.38;6.15;;;;;;;;;;6191767;28;20034;-76
2023/10/20 08:23:09;;;;;;;8.55;5.97;;;;;;;;;;6183226;28;20034;-79
2023/10/20 08:26:14;;;;;;;8.87;6.27;;;;;;;;;;6180097;28;20074;-75
2023/10/20 08:29:16;;;;;;;9.07;5.95;;;;;;;;;;6182407;28;20479;-75
2023/10/20 08:32:36;;;;;;;8.10;5.95;;;;;;;;;;6180925;28;20030;-75
2023/10/20 08:35:37;;;;;;;9.02;6.00;;;;;;;;;;6186254;28;20079;-75
2023/10/20 08:38:38;;;;;;;7.38;6.00;;;;;;;;;;6193352;28;20480;-74
2023/10/20 08:41:38;;;;;;;;;;;;;;;;;;6194661;28;20484;-75
2023/10/20 08:44:39;;;;;;;8.88;4.75;;;;;;;;;;6191126;28;19921;-74
2023/10/20 08:47:42;;;;;;;5.30;4.37;;;;;;;;;;6187803;28;20034;-75
2023/10/20 08:50:44;;;;;;;8.00;5.57;;;;;;;;;;6167631;28;20030;-76
2023/10/20 08:53:46;;;;;;;7.15;5.80;;;;;;;;;;6184585;28;20072;-76
2023/10/20 08:56:46;;;;;;;11.25;6.03;;;;;;;;;;6252094;28;20382;-74
2023/10/20 08:59:52;;;;;;;9.23;6.17;;;;;;;;;;6195032;28;20061;-75
2023/10/20 09:02:57;;;;;;;7.68;5.90;;;;;;;;;;6181874;28;20505;-75
2023/10/20 09:06:05;;;;;;;7.70;5.75;;;;;;;;;;6185157;28;20038;-75
2023/10/20 09:09:06;;;;;;;7.35;5.65;;;;;;;;;;6164250;28;20030;-76
2023/10/20 09:12:06;;;;;;;6.40;4.47;;;;;;;;;;6171219;28;20038;-77
2023/10/20 09:15:07;;;;;;;5.10;2.97;;;;;;;;;;6186532;28;20041;-76
2023/10/20 09:18:08;;;;;;;;;;;;;;;;;;6294478;28;20118;-78
2023/10/20 09:21:08;;;;;;;2.95;1.58;;;;;;;;;;6265239;28;20319;-75
2023/10/20 09:24:11;;;;;;;3.70;1.33;;;;;;;;;;6170638;28;20073;-76
2023/10/20 09:27:12;;;;;;;2.70;1.40;;;;;;;;;;6185307;28;20045;-76
2023/10/20 09:30:14;;;;;;;3.93;1.00;;;;;;;;;;6178932;28;20038;-76
2023/10/20 09:33:14;;;;;;;1.67;0.88;;;;;;;;;;6216037;28;20074;-77
2023/10/20 09:36:14;;;;;;;2.03;1.10;;;;;;;;;;6225715;28;20446;-76
2023/10/20 09:39:20;;;;;;;3.70;0.90;;;;;;;;;;6174447;28;20465;-75
2023/10/20 09:42:23;;;;;;;2.67;0.90;;;;;;;;;;6173559;28;20047;-77
2023/10/20 09:45:29;;;;;;;2.67;0.95;;;;;;;;;;6177530;28;20065;-77
2023/10/20 09:48:30;;;;;;;3.65;1.13;;;;;;;;;;6203200;28;20022;-76
2023/10/20 09:51:30;;;;;;;2.70;0.98;;;;;;;;;;6231392;28;20055;-76
2023/10/20 09:54:33;;;;;;;3.15;1.10;;;;;;;;;;6229191;28;20045;-76
2023/10/20 09:57:33;;;;;;;2.00;1.00;;;;;;;;;;6174788;28;20031;-78
2023/10/20 10:00:33;;;;;;;;;;;;;;;;;;6206894;28;20111;-76
2023/10/20 10:03:45;;;;;;;4.55;1.05;;;;;;;;;;6219678;28;19918;-78
2023/10/20 10:06:48;;;;;;;2.40;1.05;;;;;;;;;;6265246;28;20079;-77
2023/10/20 10:09:52;;;;;;;2.58;1.00;;;;;;;;;;6188275;28;20023;-76
2023/10/20 10:13:04;;;;;;;1.73;0.98;;;;;;;;;;6194437;28;20607;-76
2023/10/20 10:16:14;;;;;;;2.20;1.02;;;;;;;;;;6170765;28;20054;-77
2023/10/20 10:19:32;;;;;;;2.55;1.15;;;;;;;;;;6187896;28;20033;-76
2023/10/20 10:22:33;;;;;;;2.67;1.23;;;;;;;;;;6180082;28;20027;-79
2023/10/20 10:25:44;;;;;;;1.15;1.00;;;;;;;;;;6170695;28;20019;-79
2023/10/20 10:28:50;;;;;;;2.78;1.17;;;;;;;;;;6216338;28;20026;-77
2023/10/20 10:31:50;;;;;;;3.38;0.93;;;;;;;;;;6186717;28;20018;-77
2023/10/20 10:34:52;;;;;;;1.77;1.13;;;;;;;;;;6184820;28;20469;-77
2023/10/20 10:37:53;;;;;;;1.52;0.93;;;;;;;;;;6196311;28;20026;-77
2023/10/20 10:40:54;;;;;;;1.80;0.95;;;;;;;;;;6191556;28;20030;-78
2023/10/20 10:43:54;;;;;;;3.33;1.05;;;;;;;;;;6188698;28;20036;-76
2023/10/20 10:46:54;;;;;;;3.23;1.23;;;;;;;;;;6178504;28;20042;-77
2023/10/20 10:49:54;;;;;;;4.40;1.00;;;;;;;;;;6175377;28;20266;-77
2023/10/20 10:52:54;;;;;;;2.63;1.30;;;;;;;;;;6213236;28;20037;-77
2023/10/20 10:55:55;;;;;;;3.05;1.20;;;;;;;;;;6182624;28;20475;-79
2023/10/20 10:58:56;;;;;;;1.38;0.82;;;;;;;;;;6192275;28;20092;-76
2023/10/20 11:01:57;;;;;;;4.60;1.08;;;;;;;;;;6181608;28;20037;-77
2023/10/20 11:04:58;;;;;;;4.20;1.20;;;;;;;;;;6171444;28;20407;-78
2023/10/20 11:08:01;;;;;;;2.33;1.00;;;;;;;;;;6194573;28;20041;-76
2023/10/20 11:11:01;;;;;;;2.05;1.00;;;;;;;;;;6191090;28;20059;-77
2023/10/20 11:14:05;;;;;;;1.67;0.90;;;;;;;;;;6177712;28;20031;-76
2023/10/20 11:17:05;;;;;;;1.83;0.88;;;;;;;;;;6183074;28;20273;-77
2023/10/20 11:20:06;;;;;;;2.25;0.90;;;;;;;;;;6200796;28;20052;-77
2023/10/20 11:23:09;;;;;;;1.73;1.00;;;;;;;;;;6187033;28;20479;-77
2023/10/20 11:26:18;;;;;;;3.65;1.00;;;;;;;;;;6175420;28;20095;-77
2023/10/20 11:29:20;;;;;;;1.63;1.00;;;;;;;;;;6196788;28;20026;-76
2023/10/20 11:32:21;;;;;;;2.97;1.10;;;;;;;;;;6212188;28;20513;-77
2023/10/20 11:35:29;;;;;;;1.67;0.80;;;;;;;;;;6323271;28;20028;-77
2023/10/20 11:38:29;;;;;;;2.70;1.10;;;;;;;;;;6252259;28;20127;-76
2023/10/20 11:41:30;;;;;;;1.83;0.90;;;;;;;;;;6166798;28;20022;-76
2023/10/20 11:44:30;;;;;;;2.10;1.00;;;;;;;;;;6183626;28;20465;-76
2023/10/20 11:47:30;;;;;;;4.30;0.80;;;;;;;;;;6196841;28;20045;-78
2023/10/20 11:50:33;;;;;;;2.60;0.90;;;;;;;;;;6198014;28;20264;-76
2023/10/20 11:53:34;;;;;;;2.15;0.93;;;;;;;;;;6187939;28;20034;-76
2023/10/20 11:56:37;;;;;;;1.50;0.93;;;;;;;;;;6169649;28;20053;-76
2023/10/20 11:59:37;;;;;;;3.72;1.10;;;;;;;;;;6188827;28;20030;-76
2023/10/20 12:02:38;;;;;;;1.80;1.00;;;;;;;;;;6170676;28;20038;-77
2023/10/20 12:05:39;;;;;;;1.88;1.00;;;;;;;;;;6178634;28;20066;-76
2023/10/20 12:08:41;;;;;;;1.60;1.00;;;;;;;;;;6221325;28;20037;-76
2023/10/20 12:11:41;;;;;;;2.22;0.95;;;;;;;;;;6206816;28;20163;-76
2023/10/20 12:14:41;;;;;;;2.63;0.97;;;;;;;;;;6184121;28;20027;-76
2023/10/20 12:17:42;;;;;;;1.20;0.80;;;;;;;;;;6191409;28;20368;-76
2023/10/20 12:20:42;;;;;;;1.50;0.90;;;;;;;;;;6175888;28;20042;-75
2023/10/20 12:23:42;;;;;;;1.35;0.70;;;;;;;;;;6175714;28;20337;-75
2023/10/20 12:26:42;;;;;;;1.33;0.75;;;;;;;;;;6210461;28;20030;-76
2023/10/20 12:29:43;;;;;;;1.30;0.67;;;;;;;;;;6221153;28;20030;-76
2023/10/20 12:32:43;;;;;;;2.00;0.80;;;;;;;;;;6207629;28;20033;-76
2023/10/20 12:35:43;;;;;;;5.72;1.10;;;;;;;;;;6195161;28;20400;-75
2023/10/20 12:38:44;;;;;;;1.45;0.90;;;;;;;;;;6186505;28;20055;-75
2023/10/20 12:41:44;;;;;;;1.00;0.60;;;;;;;;;;6195510;28;20042;-75
2023/10/20 12:44:45;;;;;;;2.80;1.10;;;;;;;;;;6172404;28;20273;-76
2023/10/20 12:47:45;;;;;;;1.90;0.80;;;;;;;;;;6177773;28;20035;-75
2023/10/20 12:50:45;;;;;;;1.88;0.93;;;;;;;;;;6193060;28;20365;-75
2023/10/20 12:53:45;;;;;;;1.95;0.88;;;;;;;;;;6173035;28;20039;-75
2023/10/20 12:56:46;;;;;;;2.60;1.20;;;;;;;;;;6182422;28;20463;-75
2023/10/20 12:59:47;;;;;;;2.03;1.10;;;;;;;;;;6243027;28;20056;-75
2023/10/20 13:02:50;;;;;;;2.30;1.10;;;;;;;;;;6210861;28;20038;-75
2023/10/20 13:05:50;;;;;;;3.17;1.13;;;;;;;;;;6192305;28;20113;-76
2023/10/20 13:08:50;;;;;;;1.43;1.00;;;;;;;;;;6191049;28;20516;-76
2023/10/20 13:11:51;;;;;;;2.80;1.10;;;;;;;;;;6203579;28;20284;-76
2023/10/20 13:14:51;;;;;;;5.67;1.30;;;;;;;;;;6205370;28;20023;-77
2023/10/20 13:17:51;;;;;;;1.83;1.10;;;;;;;;;;6190545;28;20030;-78
2023/10/20 13:20:51;;;;;;;1.80;1.00;;;;;;;;;;6188955;28;20293;-77
2023/10/20 13:23:53;;;;;;;3.35;1.20;;;;;;;;;;6181780;28;20273;-76
2023/10/20 13:26:53;;;;;;;4.40;1.30;;;;;;;;;;6196224;28;20030;-76
2023/10/20 13:29:53;;;;;;;4.32;1.38;;;;;;;;;;6197934;28;20051;-76
2023/10/20 13:32:54;;;;;;;2.58;1.42;;;;;;;;;;6195868;28;20026;-75
2023/10/20 13:35:59;;;;;;;3.10;1.30;;;;;;;;;;6176626;28;20057;-76
2023/10/20 13:38:59;;;;;;;3.45;1.00;;;;;;;;;;6163665;28;20420;-76
2023/10/20 13:42:02;;;;;;;2.23;1.10;;;;;;;;;;6186969;28;20417;-75
2023/10/20 13:45:03;;;;;;;3.70;1.30;;;;;;;;;;6200347;28;20465;-75
2023/10/20 13:48:03;;;;;;;4.18;1.30;;;;;;;;;;6218012;28;20474;-74
2023/10/20 13:51:04;;;;;;;3.45;1.40;;;;;;;;;;6198828;28;20029;-74
2023/10/20 13:54:04;;;;;;;4.03;1.30;;;;;;;;;;6203123;28;20105;-74
2023/10/20 13:57:05;;;;;;;3.50;1.10;;;;;;;;;;6187124;28;20035;-75
2023/10/20 14:00:06;;;;;;;3.65;1.23;;;;;;;;;;6208883;28;20037;-74
2023/10/20 14:03:07;;;;;;;4.15;1.55;;;;;;;;;;6209334;28;20070;-75
2023/10/20 14:06:07;;;;;;;4.13;1.50;;;;;;;;;;6194472;28;20098;-74
2023/10/20 14:09:08;;;;;;;5.77;1.40;;;;;;;;;;6190011;28;20034;-74
2023/10/20 14:12:08;;;;;;;2.78;1.67;;;;;;;;;;6200819;28;20626;-74
2023/10/20 14:15:11;;;;;;;3.77;1.20;;;;;;;;;;6200530;28;20531;-74
2023/10/20 14:18:11;;;;;;;5.43;1.60;;;;;;;;;;6199575;28;20277;-75
2023/10/20 14:21:12;;;;;;;4.82;1.52;;;;;;;;;;6192782;28;20125;-74
2023/10/20 14:24:12;;;;;;;3.28;1.60;;;;;;;;;;6189260;28;20099;-74
2023/10/20 14:27:13;;;;;;;2.72;1.58;;;;;;;;;;6179590;28;20376;-73
2023/10/20 14:30:13;;;;;;;3.22;1.50;;;;;;;;;;6202127;28;20030;-74
2023/10/20 14:33:13;;;;;;;4.43;1.50;;;;;;;;;;6194605;28;20097;-75
2023/10/20 14:36:15;;;;;;;2.13;1.20;;;;;;;;;;6204043;28;20413;-73
2023/10/20 14:39:15;;;;;;;3.78;1.55;;;;;;;;;;6172825;28;20083;-73
2023/10/20 14:42:15;;;;;;;3.97;1.27;;;;;;;;;;6193472;28;20060;-73
2023/10/20 14:45:15;;;;;;;2.87;1.30;;;;;;;;;;6178614;28;20030;-74
2023/10/20 14:48:16;;;;;;;1.92;1.13;;;;;;;;;;6202839;28;20022;-75
2023/10/20 14:51:16;;;;;;;4.53;1.47;;;;;;;;;;6183096;28;20027;-73
2023/10/20 14:54:16;;;;;;;4.47;1.25;;;;;;;;;;6175841;28;20039;-74
2023/10/20 14:57:16;;;;;;;3.07;1.13;;;;;;;;;;6185043;28;20023;-75
2023/10/20 15:00:17;;;;;;;3.60;1.47;;;;;;;;;;6182441;28;20030;-75
2023/10/20 15:03:21;;;;;;;5.68;1.23;;;;;;;;;;6183046;28;20121;-77
2023/10/20 15:06:21;;;;;;;2.30;1.13;;;;;;;;;;6200138;28;20032;-75
2023/10/20 15:09:23;;;;;;;3.47;1.50;;;;;;;;;;6201700;28;20074;-76
2023/10/20 15:12:23;;;;;;;7.57;1.42;;;;;;;;;;6186441;28;20281;-76
2023/10/20 15:15:23;;;;;;;3.83;1.50;;;;;;;;;;6172226;28;20042;-79
2023/10/20 15:18:23;;;;;;;5.45;1.50;;;;;;;;;;6181819;28;20068;-78
2023/10/20 15:21:24;;;;;;;3.25;1.33;;;;;;;;;;6191066;28;20399;-77
2023/10/20 15:24:25;;;;;;;2.03;1.20;;;;;;;;;;6176541;28;20051;-77
2023/10/20 15:27:25;;;;;;;2.47;1.03;;;;;;;;;;6205228;28;20451;-78
2023/10/20 15:30:25;;;;;;;6.17;1.80;;;;;;;;;;6165854;28;20027;-77
2023/10/20 15:33:26;;;;;;;4.90;1.35;;;;;;;;;;6210256;28;20049;-77
2023/10/20 15:36:27;;;;;;;2.50;1.70;;;;;;;;;;6204319;28;20113;-77
2023/10/20 15:39:28;;;;;;;3.75;1.60;;;;;;;;;;6159598;28;20104;-77
2023/10/20 15:42:29;;;;;;;4.03;1.38;;;;;;;;;;6197483;28;20035;-77
2023/10/20 15:45:29;;;;;;;4.78;1.55;;;;;;;;;;6172324;28;20088;-77
2023/10/20 15:48:30;;;;;;;2.88;1.10;;;;;;;;;;6191652;28;20050;-77
2023/10/20 15:51:30;;;;;;;7.30;1.53;;;;;;;;;;6182515;28;20034;-77
2023/10/20 15:54:38;;;;;;;6.57;1.60;;;;;;;;;;6181238;28;20224;-77
2023/10/20 15:57:38;;;;;;;4.80;1.65;;;;;;;;;;6177457;28;20102;-77
2023/10/20 16:00:40;;;;;;;2.88;1.20;;;;;;;;;;6193047;28;20018;-77
2023/10/20 16:03:41;;;;;;;5.28;1.60;;;;;;;;;;6180418;28;20146;-77
2023/10/20 16:06:41;;;;;;;4.00;1.38;;;;;;;;;;6200986;28;20027;-75
2023/10/20 16:09:41;;;;;;;4.68;1.75;;;;;;;;;;6186054;28;20080;-76
2023/10/20 16:12:42;;;;;;;3.37;1.43;;;;;;;;;;6191679;28;20442;-75
2023/10/20 16:15:42;;;;;;;4.65;1.65;;;;;;;;;;6187570;28;20301;-76
2023/10/20 16:18:42;;;;;;;4.30;1.40;;;;;;;;;;6176454;28;20491;-74
2023/10/20 16:21:42;;;;;;;5.57;1.70;;;;;;;;;;6179303;28;20070;-74
2023/10/20 16:24:43;;;;;;;4.70;1.50;;;;;;;;;;6179276;28;20044;-78
2023/10/20 16:27:43;;;;;;;4.80;1.65;;;;;;;;;;6181243;28;20277;-74
2023/10/20 16:30:43;;;;;;;5.97;1.47;;;;;;;;;;6237816;28;20515;-77
2023/10/20 16:33:43;;;;;;;5.78;1.42;;;;;;;;;;6190103;28;20041;-77
2023/10/20 16:36:44;;;;;;;5.77;1.33;;;;;;;;;;6258784;28;20027;-75
2023/10/20 16:39:44;;;;;;;;;;;;;;;;;;6189732;28;1324890;-75
2023/10/20 16:42:44;;;;;;;4.03;1.33;;;;;;;;;;6189062;28;19975;-77
2023/10/20 16:45:44;;;;;;;5.13;1.40;;;;;;;;;;6190669;28;20026;-76
2023/10/20 16:48:45;;;;;;;3.30;1.50;;;;;;;;;;6257578;28;20115;-75
2023/10/20 16:51:46;;;;;;;4.75;1.35;;;;;;;;;;6268292;28;20684;-76
2023/10/20 16:54:51;;;;;;;3.47;1.63;;;;;;;;;;6192064;28;20030;-76
2023/10/20 16:57:51;;;;;;;4.43;1.90;;;;;;;;;;6174987;28;20061;-77
2023/10/20 17:00:52;;;;;;;4.03;1.60;;;;;;;;;;6220661;28;20040;-76
2023/10/20 17:03:52;;;;;;;4.63;1.60;;;;;;;;;;6199467;28;20489;-77
2023/10/20 17:06:52;;;;;;;3.95;1.63;;;;;;;;;;6205789;28;20034;-77
2023/10/20 17:09:53;;;;;;;5.47;1.77;;;;;;;;;;6204701;28;20031;-76
2023/10/20 17:12:53;;;;;;;3.97;1.75;;;;;;;;;;6178768;28;20742;-77
2023/10/20 17:15:53;;;;;;;4.83;1.67;;;;;;;;;;6172591;28;20098;-77
2023/10/20 17:18:54;;;;;;;5.40;1.35;;;;;;;;;;5843946;28;9999874;-76
2023/10/20 17:21:54;;;;;;;3.83;1.60;;;;;;;;;;5840427;28;10000450;-77
2023/10/20 17:24:54;;;;;;;4.80;1.60;;;;;;;;;;6216290;28;20096;-76
2023/10/20 17:27:54;;;;;;;3.70;1.37;;;;;;;;;;6178885;28;20289;-77
2023/10/20 17:30:57;;;;;;;3.93;1.63;;;;;;;;;;6185130;28;20290;-77
2023/10/20 17:33:57;;;;;;;4.63;1.55;;;;;;;;;;6203970;28;20030;-77
2023/10/20 17:36:57;;;;;;;4.53;1.53;;;;;;;;;;6216663;28;20394;-77
2023/10/20 17:39:58;;;;;;;2.67;1.47;;;;;;;;;;6179532;28;20293;-78
2023/10/20 17:42:58;;;;;;;3.33;2.10;;;;;;;;;;6172238;28;21532;-77
2023/10/20 17:46:02;;;;;;;4.60;1.97;;;;;;;;;;6186435;28;20368;-76
2023/10/20 17:49:02;;;;;;;3.92;1.70;;;;;;;;;;6172155;28;20035;-77
2023/10/20 17:52:03;;;;;;;5.88;1.58;;;;;;;;;;6171533;28;20391;-79
2023/10/20 17:55:07;;;;;;;5.90;2.00;;;;;;;;;;6182688;28;20038;-81
2023/10/20 17:58:07;;;;;;;5.15;2.00;;;;;;;;;;6176663;28;20031;-78
2023/10/20 18:01:08;;;;;;;5.03;1.98;;;;;;;;;;6179095;28;20035;-77
2023/10/20 18:04:09;;;;;;;4.15;1.95;;;;;;;;;;6177755;28;20031;-77
2023/10/20 18:07:09;;;;;;;3.92;1.70;;;;;;;;;;6181555;28;20026;-77
2023/10/20 18:10:11;;;;;;;2.47;1.80;;;;;;;;;;6174294;28;20107;-78
2023/10/20 18:13:14;;;;;;;3.05;1.80;;;;;;;;;;6174877;28;20297;-78
2023/10/20 18:16:15;;;;;;;3.95;1.85;;;;;;;;;;6190484;28;20487;-77
2023/10/20 18:19:15;;;;;;;3.78;1.70;;;;;;;;;;6174811;28;20030;-77
2023/10/20 18:22:15;;;;;;;4.68;1.92;;;;;;;;;;5834072;28;9999744;-77
2023/10/20 18:25:16;;;;;;;3.35;1.60;;;;;;;;;;6182388;28;20084;-76
2023/10/20 18:28:16;;;;;;;3.63;1.52;;;;;;;;;;6191268;28;20033;-76
2023/10/20 18:31:16;;;;;;;5.37;1.60;;;;;;;;;;6180171;28;20043;-76
2023/10/20 18:34:17;;;;;;;3.92;1.75;;;;;;;;;;6168667;28;20286;-76
2023/10/20 18:37:17;;;;;;;5.73;1.90;;;;;;;;;;6217707;28;20087;-79
2023/10/20 18:40:17;;;;;;;3.03;1.60;;;;;;;;;;6204241;28;20058;-78
2023/10/20 18:43:18;;;;;;;4.18;1.63;;;;;;;;;;6188562;28;20041;-79